sensor_id;sensor_type;location;lat;lon;timestamp;P1;durP1;ratioP1;P2;durP2;ratioP2
13927;SDS011;7036;50.834;4.718;2022-12-29T00:02:03;3.22;;;2.22;;
13927;SDS011;7036;50.834;4.718;2022-12-29T00:04:31;5.97;;;2.05;;
13927;SDS011;7036;50.834;4.718;2022-12-29T00:06:58;2.65;;;2.35;;
13927;SDS011;7036;50.834;4.718;2022-12-29T00:09:26;4.07;;;2.22;;
13927;SDS011;7036;50.834;4.718;2022-12-29T00:11:54;3.10;;;2.30;;
13927;SDS011;7036;50.834;4.718;2022-12-29T00:14:22;3.45;;;2.08;;
13927;SDS011;7036;50.834;4.718;2022-12-29T00:17:07;2.50;;;2.10;;
13927;SDS011;7036;50.834;4.718;2022-12-29T00:19:34;4.78;;;1.88;;
13927;SDS011;7036;50.834;4.718;2022-12-29T00:22:19;2.57;;;1.90;;
13927;SDS011;7036;50.834;4.718;2022-12-29T00:25:05;1.97;;;1.50;;
13927;SDS011;7036;50.834;4.718;2022-12-29T00:27:32;2.42;;;1.73;;
13927;SDS011;7036;50.834;4.718;2022-12-29T00:30:18;3.10;;;1.43;;
13927;SDS011;7036;50.834;4.718;2022-12-29T00:33:10;2.07;;;1.73;;
13927;SDS011;7036;50.834;4.718;2022-12-29T00:35:55;1.77;;;1.50;;
13927;SDS011;7036;50.834;4.718;2022-12-29T00:38:22;3.35;;;1.85;;
13927;SDS011;7036;50.834;4.718;2022-12-29T00:41:07;2.73;;;1.90;;
13927;SDS011;7036;50.834;4.718;2022-12-29T00:43:53;2.73;;;1.63;;
13927;SDS011;7036;50.834;4.718;2022-12-29T00:46:32;3.33;;;1.67;;
13927;SDS011;7036;50.834;4.718;2022-12-29T00:49:00;1.50;;;1.38;;
13927;SDS011;7036;50.834;4.718;2022-12-29T00:51:45;3.27;;;1.90;;
13927;SDS011;7036;50.834;4.718;2022-12-29T00:54:13;1.92;;;1.50;;
13927;SDS011;7036;50.834;4.718;2022-12-29T00:56:39;2.47;;;1.47;;
13927;SDS011;7036;50.834;4.718;2022-12-29T00:59:09;2.90;;;1.45;;
13927;SDS011;7036;50.834;4.718;2022-12-29T01:01:35;2.40;;;1.42;;
13927;SDS011;7036;50.834;4.718;2022-12-29T01:04:03;1.67;;;1.30;;
13927;SDS011;7036;50.834;4.718;2022-12-29T01:06:31;1.98;;;1.30;;
13927;SDS011;7036;50.834;4.718;2022-12-29T01:08:58;1.83;;;1.55;;
13927;SDS011;7036;50.834;4.718;2022-12-29T01:11:43;2.23;;;1.37;;
13927;SDS011;7036;50.834;4.718;2022-12-29T01:14:11;1.70;;;1.40;;
13927;SDS011;7036;50.834;4.718;2022-12-29T01:16:39;3.83;;;1.52;;
13927;SDS011;7036;50.834;4.718;2022-12-29T01:19:06;2.55;;;1.40;;
13927;SDS011;7036;50.834;4.718;2022-12-29T01:21:33;0.98;;;0.93;;
13927;SDS011;7036;50.834;4.718;2022-12-29T01:24:01;1.10;;;0.98;;
13927;SDS011;7036;50.834;4.718;2022-12-29T01:26:29;1.15;;;1.08;;
13927;SDS011;7036;50.834;4.718;2022-12-29T01:28:56;4.20;;;1.33;;
13927;SDS011;7036;50.834;4.718;2022-12-29T01:31:23;2.63;;;1.13;;
13927;SDS011;7036;50.834;4.718;2022-12-29T01:33:51;1.17;;;1.08;;
13927;SDS011;7036;50.834;4.718;2022-12-29T01:36:20;1.60;;;1.20;;
13927;SDS011;7036;50.834;4.718;2022-12-29T01:38:47;1.45;;;1.08;;
13927;SDS011;7036;50.834;4.718;2022-12-29T01:41:16;2.90;;;1.30;;
13927;SDS011;7036;50.834;4.718;2022-12-29T01:43:50;3.28;;;1.27;;
13927;SDS011;7036;50.834;4.718;2022-12-29T01:46:23;1.23;;;1.13;;
13927;SDS011;7036;50.834;4.718;2022-12-29T01:48:52;1.57;;;1.00;;
13927;SDS011;7036;50.834;4.718;2022-12-29T01:51:55;1.87;;;1.30;;
13927;SDS011;7036;50.834;4.718;2022-12-29T01:54:22;1.20;;;1.10;;
13927;SDS011;7036;50.834;4.718;2022-12-29T01:56:45;1.40;;;1.13;;
13927;SDS011;7036;50.834;4.718;2022-12-29T01:59:15;1.20;;;1.10;;
13927;SDS011;7036;50.834;4.718;2022-12-29T02:01:40;1.08;;;0.80;;
13927;SDS011;7036;50.834;4.718;2022-12-29T02:04:09;1.27;;;1.00;;
13927;SDS011;7036;50.834;4.718;2022-12-29T02:06:45;1.13;;;1.00;;
13927;SDS011;7036;50.834;4.718;2022-12-29T02:09:09;1.27;;;1.17;;
13927;SDS011;7036;50.834;4.718;2022-12-29T02:11:35;1.00;;;0.83;;
13927;SDS011;7036;50.834;4.718;2022-12-29T02:14:14;1.65;;;1.02;;
13927;SDS011;7036;50.834;4.718;2022-12-29T02:16:54;3.23;;;1.30;;
13927;SDS011;7036;50.834;4.718;2022-12-29T02:22:25;1.13;;;0.80;;
13927;SDS011;7036;50.834;4.718;2022-12-29T02:27:34;1.23;;;1.00;;
13927;SDS011;7036;50.834;4.718;2022-12-29T02:43:56;2.93;;;1.23;;
13927;SDS011;7036;50.834;4.718;2022-12-29T02:46:22;1.20;;;1.10;;
13927;SDS011;7036;50.834;4.718;2022-12-29T02:48:55;2.30;;;0.93;;
13927;SDS011;7036;50.834;4.718;2022-12-29T02:51:25;1.53;;;0.73;;
13927;SDS011;7036;50.834;4.718;2022-12-29T02:53:50;1.03;;;0.90;;
13927;SDS011;7036;50.834;4.718;2022-12-29T02:56:35;1.97;;;1.20;;
13927;SDS011;7036;50.834;4.718;2022-12-29T02:59:02;0.88;;;0.70;;
13927;SDS011;7036;50.834;4.718;2022-12-29T03:01:56;1.90;;;0.93;;
13927;SDS011;7036;50.834;4.718;2022-12-29T03:04:32;1.10;;;0.83;;
13927;SDS011;7036;50.834;4.718;2022-12-29T03:06:52;0.80;;;0.70;;
13927;SDS011;7036;50.834;4.718;2022-12-29T03:17:57;0.80;;;0.60;;
13927;SDS011;7036;50.834;4.718;2022-12-29T03:20:27;0.80;;;0.57;;
13927;SDS011;7036;50.834;4.718;2022-12-29T03:22:53;0.90;;;0.77;;
13927;SDS011;7036;50.834;4.718;2022-12-29T03:25:39;1.15;;;1.02;;
13927;SDS011;7036;50.834;4.718;2022-12-29T03:28:04;1.03;;;0.70;;
13927;SDS011;7036;50.834;4.718;2022-12-29T03:30:29;1.13;;;0.87;;
13927;SDS011;7036;50.834;4.718;2022-12-29T03:32:58;1.55;;;0.77;;
13927;SDS011;7036;50.834;4.718;2022-12-29T03:35:25;0.85;;;0.57;;
13927;SDS011;7036;50.834;4.718;2022-12-29T03:40:19;0.57;;;0.57;;
13927;SDS011;7036;50.834;4.718;2022-12-29T03:42:46;1.67;;;0.88;;
13927;SDS011;7036;50.834;4.718;2022-12-29T03:45:14;0.93;;;0.75;;
13927;SDS011;7036;50.834;4.718;2022-12-29T03:47:41;1.33;;;0.60;;
13927;SDS011;7036;50.834;4.718;2022-12-29T03:50:08;0.85;;;0.60;;
13927;SDS011;7036;50.834;4.718;2022-12-29T03:52:35;0.70;;;0.70;;
13927;SDS011;7036;50.834;4.718;2022-12-29T03:55:03;1.13;;;0.90;;
13927;SDS011;7036;50.834;4.718;2022-12-29T03:57:30;0.60;;;0.60;;
13927;SDS011;7036;50.834;4.718;2022-12-29T03:59:58;1.02;;;0.93;;
13927;SDS011;7036;50.834;4.718;2022-12-29T04:02:26;1.00;;;0.75;;
13927;SDS011;7036;50.834;4.718;2022-12-29T04:04:53;1.00;;;0.80;;
13927;SDS011;7036;50.834;4.718;2022-12-29T04:07:20;0.70;;;0.60;;
13927;SDS011;7036;50.834;4.718;2022-12-29T04:09:48;1.17;;;0.80;;
13927;SDS011;7036;50.834;4.718;2022-12-29T04:12:15;1.02;;;0.90;;
13927;SDS011;7036;50.834;4.718;2022-12-29T04:14:42;0.98;;;0.73;;
13927;SDS011;7036;50.834;4.718;2022-12-29T04:17:09;1.58;;;0.80;;
13927;SDS011;7036;50.834;4.718;2022-12-29T04:19:37;1.13;;;0.90;;
13927;SDS011;7036;50.834;4.718;2022-12-29T04:22:04;2.17;;;0.80;;
13927;SDS011;7036;50.834;4.718;2022-12-29T04:24:32;1.08;;;0.60;;
13927;SDS011;7036;50.834;4.718;2022-12-29T04:27:00;2.28;;;1.02;;
13927;SDS011;7036;50.834;4.718;2022-12-29T04:29:27;0.95;;;0.70;;
13927;SDS011;7036;50.834;4.718;2022-12-29T04:31:55;1.23;;;0.60;;
13927;SDS011;7036;50.834;4.718;2022-12-29T04:34:23;1.15;;;0.80;;
13927;SDS011;7036;50.834;4.718;2022-12-29T04:36:51;1.30;;;0.70;;
13927;SDS011;7036;50.834;4.718;2022-12-29T04:39:19;0.70;;;0.60;;
13927;SDS011;7036;50.834;4.718;2022-12-29T04:41:46;0.60;;;0.60;;
13927;SDS011;7036;50.834;4.718;2022-12-29T04:44:13;0.82;;;0.50;;
13927;SDS011;7036;50.834;4.718;2022-12-29T04:46:40;2.05;;;0.68;;
13927;SDS011;7036;50.834;4.718;2022-12-29T04:49:08;0.85;;;0.52;;
13927;SDS011;7036;50.834;4.718;2022-12-29T04:51:36;0.80;;;0.50;;
13927;SDS011;7036;50.834;4.718;2022-12-29T04:54:04;1.55;;;0.70;;
13927;SDS011;7036;50.834;4.718;2022-12-29T04:56:31;0.60;;;0.60;;
13927;SDS011;7036;50.834;4.718;2022-12-29T04:58:59;1.67;;;0.70;;
13927;SDS011;7036;50.834;4.718;2022-12-29T05:01:27;1.42;;;0.60;;
13927;SDS011;7036;50.834;4.718;2022-12-29T05:03:54;2.00;;;0.70;;
13927;SDS011;7036;50.834;4.718;2022-12-29T05:06:21;1.13;;;0.60;;
13927;SDS011;7036;50.834;4.718;2022-12-29T05:08:49;1.23;;;0.80;;
13927;SDS011;7036;50.834;4.718;2022-12-29T05:11:16;1.00;;;0.70;;
13927;SDS011;7036;50.834;4.718;2022-12-29T05:13:47;1.08;;;0.55;;
13927;SDS011;7036;50.834;4.718;2022-12-29T05:16:13;0.70;;;0.70;;
13927;SDS011;7036;50.834;4.718;2022-12-29T05:18:40;0.63;;;0.55;;
13927;SDS011;7036;50.834;4.718;2022-12-29T05:21:08;1.05;;;0.95;;
13927;SDS011;7036;50.834;4.718;2022-12-29T05:23:35;1.25;;;0.70;;
13927;SDS011;7036;50.834;4.718;2022-12-29T05:26:02;1.02;;;0.60;;
13927;SDS011;7036;50.834;4.718;2022-12-29T05:28:29;1.30;;;0.70;;
13927;SDS011;7036;50.834;4.718;2022-12-29T05:30:57;2.28;;;0.95;;
13927;SDS011;7036;50.834;4.718;2022-12-29T05:33:25;1.95;;;0.85;;
13927;SDS011;7036;50.834;4.718;2022-12-29T05:35:52;0.80;;;0.60;;
13927;SDS011;7036;50.834;4.718;2022-12-29T05:38:20;0.57;;;0.57;;
13927;SDS011;7036;50.834;4.718;2022-12-29T05:40:47;1.42;;;0.80;;
13927;SDS011;7036;50.834;4.718;2022-12-29T05:43:14;1.33;;;0.68;;
13927;SDS011;7036;50.834;4.718;2022-12-29T05:45:41;1.17;;;0.60;;
13927;SDS011;7036;50.834;4.718;2022-12-29T05:48:09;0.80;;;0.70;;
13927;SDS011;7036;50.834;4.718;2022-12-29T05:50:36;1.10;;;1.00;;
13927;SDS011;7036;50.834;4.718;2022-12-29T05:53:03;1.42;;;0.90;;
13927;SDS011;7036;50.834;4.718;2022-12-29T05:55:31;1.48;;;0.80;;
13927;SDS011;7036;50.834;4.718;2022-12-29T05:57:58;0.73;;;0.60;;
13927;SDS011;7036;50.834;4.718;2022-12-29T06:00:26;1.23;;;0.70;;
13927;SDS011;7036;50.834;4.718;2022-12-29T06:02:53;1.23;;;0.87;;
13927;SDS011;7036;50.834;4.718;2022-12-29T06:05:20;1.30;;;0.68;;
13927;SDS011;7036;50.834;4.718;2022-12-29T06:07:48;0.80;;;0.73;;
13927;SDS011;7036;50.834;4.718;2022-12-29T06:10:15;0.73;;;0.65;;
13927;SDS011;7036;50.834;4.718;2022-12-29T06:12:43;1.20;;;0.80;;
13927;SDS011;7036;50.834;4.718;2022-12-29T06:15:10;2.08;;;1.00;;
13927;SDS011;7036;50.834;4.718;2022-12-29T06:17:37;1.13;;;0.57;;
13927;SDS011;7036;50.834;4.718;2022-12-29T06:20:05;0.93;;;0.60;;
13927;SDS011;7036;50.834;4.718;2022-12-29T06:22:33;1.37;;;0.63;;
13927;SDS011;7036;50.834;4.718;2022-12-29T06:24:59;1.00;;;0.80;;
13927;SDS011;7036;50.834;4.718;2022-12-29T06:27:27;1.35;;;0.70;;
13927;SDS011;7036;50.834;4.718;2022-12-29T06:29:54;1.20;;;0.70;;
13927;SDS011;7036;50.834;4.718;2022-12-29T06:32:22;1.27;;;0.68;;
13927;SDS011;7036;50.834;4.718;2022-12-29T06:34:49;1.13;;;0.57;;
13927;SDS011;7036;50.834;4.718;2022-12-29T06:37:17;2.67;;;0.70;;
13927;SDS011;7036;50.834;4.718;2022-12-29T06:39:44;1.40;;;0.90;;
13927;SDS011;7036;50.834;4.718;2022-12-29T06:42:13;1.58;;;0.88;;
13927;SDS011;7036;50.834;4.718;2022-12-29T06:44:40;1.60;;;0.80;;
13927;SDS011;7036;50.834;4.718;2022-12-29T06:47:07;1.45;;;0.70;;
13927;SDS011;7036;50.834;4.718;2022-12-29T06:49:34;6.80;;;1.20;;
13927;SDS011;7036;50.834;4.718;2022-12-29T06:52:02;6.50;;;1.88;;
13927;SDS011;7036;50.834;4.718;2022-12-29T06:54:29;6.40;;;1.42;;
13927;SDS011;7036;50.834;4.718;2022-12-29T06:56:56;14.75;;;2.50;;
13927;SDS011;7036;50.834;4.718;2022-12-29T06:59:24;19.25;;;2.17;;
13927;SDS011;7036;50.834;4.718;2022-12-29T07:01:52;4.75;;;1.42;;
13927;SDS011;7036;50.834;4.718;2022-12-29T07:04:19;9.88;;;1.58;;
13927;SDS011;7036;50.834;4.718;2022-12-29T07:06:46;7.15;;;1.98;;
13927;SDS011;7036;50.834;4.718;2022-12-29T07:09:13;14.95;;;2.40;;
13927;SDS011;7036;50.834;4.718;2022-12-29T07:11:41;14.88;;;3.00;;
13927;SDS011;7036;50.834;4.718;2022-12-29T07:14:09;10.57;;;1.98;;
13927;SDS011;7036;50.834;4.718;2022-12-29T07:16:36;10.15;;;2.30;;
13927;SDS011;7036;50.834;4.718;2022-12-29T07:19:04;8.85;;;1.70;;
13927;SDS011;7036;50.834;4.718;2022-12-29T07:21:31;14.63;;;2.92;;
13927;SDS011;7036;50.834;4.718;2022-12-29T07:23:58;6.93;;;2.00;;
13927;SDS011;7036;50.834;4.718;2022-12-29T07:26:25;6.25;;;1.50;;
13927;SDS011;7036;50.834;4.718;2022-12-29T07:28:53;6.55;;;2.00;;
13927;SDS011;7036;50.834;4.718;2022-12-29T07:31:21;12.15;;;2.47;;
13927;SDS011;7036;50.834;4.718;2022-12-29T07:33:48;10.25;;;2.60;;
13927;SDS011;7036;50.834;4.718;2022-12-29T07:36:16;21.15;;;3.85;;
13927;SDS011;7036;50.834;4.718;2022-12-29T07:38:43;12.82;;;2.50;;
13927;SDS011;7036;50.834;4.718;2022-12-29T07:41:10;21.75;;;3.30;;
13927;SDS011;7036;50.834;4.718;2022-12-29T07:43:37;14.90;;;2.88;;
13927;SDS011;7036;50.834;4.718;2022-12-29T07:46:05;14.93;;;2.80;;
13927;SDS011;7036;50.834;4.718;2022-12-29T07:48:32;17.10;;;2.78;;
13927;SDS011;7036;50.834;4.718;2022-12-29T07:51:00;10.43;;;2.90;;
13927;SDS011;7036;50.834;4.718;2022-12-29T07:53:27;9.25;;;1.98;;
13927;SDS011;7036;50.834;4.718;2022-12-29T07:55:55;7.68;;;2.38;;
13927;SDS011;7036;50.834;4.718;2022-12-29T07:58:23;9.55;;;2.58;;
13927;SDS011;7036;50.834;4.718;2022-12-29T08:00:53;9.48;;;2.28;;
13927;SDS011;7036;50.834;4.718;2022-12-29T08:03:19;12.10;;;2.30;;
13927;SDS011;7036;50.834;4.718;2022-12-29T08:05:47;11.25;;;2.90;;
13927;SDS011;7036;50.834;4.718;2022-12-29T08:08:14;9.50;;;2.25;;
13927;SDS011;7036;50.834;4.718;2022-12-29T08:10:41;13.90;;;2.53;;
13927;SDS011;7036;50.834;4.718;2022-12-29T08:13:08;13.32;;;2.85;;
13927;SDS011;7036;50.834;4.718;2022-12-29T08:15:36;12.98;;;2.33;;
13927;SDS011;7036;50.834;4.718;2022-12-29T08:18:03;15.43;;;2.80;;
13927;SDS011;7036;50.834;4.718;2022-12-29T08:20:30;18.70;;;3.70;;
13927;SDS011;7036;50.834;4.718;2022-12-29T08:22:57;25.17;;;3.90;;
13927;SDS011;7036;50.834;4.718;2022-12-29T08:25:24;16.92;;;3.13;;
13927;SDS011;7036;50.834;4.718;2022-12-29T08:27:51;12.07;;;3.53;;
13927;SDS011;7036;50.834;4.718;2022-12-29T08:30:20;15.10;;;3.22;;
13927;SDS011;7036;50.834;4.718;2022-12-29T08:32:46;12.50;;;2.87;;
13927;SDS011;7036;50.834;4.718;2022-12-29T08:35:13;11.60;;;3.20;;
13927;SDS011;7036;50.834;4.718;2022-12-29T08:37:41;16.75;;;2.90;;
13927;SDS011;7036;50.834;4.718;2022-12-29T08:40:09;26.52;;;3.55;;
13927;SDS011;7036;50.834;4.718;2022-12-29T08:42:37;9.27;;;2.45;;
13927;SDS011;7036;50.834;4.718;2022-12-29T08:45:04;10.88;;;3.17;;
13927;SDS011;7036;50.834;4.718;2022-12-29T08:47:32;6.85;;;2.63;;
13927;SDS011;7036;50.834;4.718;2022-12-29T08:49:59;5.80;;;1.87;;
13927;SDS011;7036;50.834;4.718;2022-12-29T08:52:26;8.43;;;3.00;;
13927;SDS011;7036;50.834;4.718;2022-12-29T08:54:53;9.70;;;2.50;;
13927;SDS011;7036;50.834;4.718;2022-12-29T08:57:21;9.73;;;2.75;;
13927;SDS011;7036;50.834;4.718;2022-12-29T08:59:48;9.88;;;2.75;;
13927;SDS011;7036;50.834;4.718;2022-12-29T09:02:16;8.05;;;2.15;;
13927;SDS011;7036;50.834;4.718;2022-12-29T09:04:43;7.65;;;2.10;;
13927;SDS011;7036;50.834;4.718;2022-12-29T09:07:10;5.70;;;2.58;;
13927;SDS011;7036;50.834;4.718;2022-12-29T09:09:38;6.65;;;2.40;;
13927;SDS011;7036;50.834;4.718;2022-12-29T09:12:04;8.60;;;2.70;;
13927;SDS011;7036;50.834;4.718;2022-12-29T09:14:32;6.18;;;2.35;;
13927;SDS011;7036;50.834;4.718;2022-12-29T09:17:00;7.72;;;1.58;;
13927;SDS011;7036;50.834;4.718;2022-12-29T09:19:44;6.73;;;2.30;;
13927;SDS011;7036;50.834;4.718;2022-12-29T09:22:12;8.43;;;2.15;;
13927;SDS011;7036;50.834;4.718;2022-12-29T09:24:40;5.18;;;1.77;;
13927;SDS011;7036;50.834;4.718;2022-12-29T09:27:08;7.70;;;1.85;;
13927;SDS011;7036;50.834;4.718;2022-12-29T09:29:35;8.63;;;2.30;;
13927;SDS011;7036;50.834;4.718;2022-12-29T09:32:02;12.18;;;2.97;;
13927;SDS011;7036;50.834;4.718;2022-12-29T09:34:30;3.53;;;1.80;;
13927;SDS011;7036;50.834;4.718;2022-12-29T09:37:01;9.05;;;2.88;;
13927;SDS011;7036;50.834;4.718;2022-12-29T09:39:28;8.63;;;2.53;;
13927;SDS011;7036;50.834;4.718;2022-12-29T09:42:06;11.10;;;2.30;;
13927;SDS011;7036;50.834;4.718;2022-12-29T09:47:23;14.33;;;2.83;;
13927;SDS011;7036;50.834;4.718;2022-12-29T09:49:55;5.78;;;2.08;;
13927;SDS011;7036;50.834;4.718;2022-12-29T09:52:29;7.60;;;2.40;;
13927;SDS011;7036;50.834;4.718;2022-12-29T09:54:58;12.07;;;2.73;;
13927;SDS011;7036;50.834;4.718;2022-12-29T09:57:28;9.80;;;2.77;;
13927;SDS011;7036;50.834;4.718;2022-12-29T10:00:05;16.17;;;2.67;;
13927;SDS011;7036;50.834;4.718;2022-12-29T10:05:14;13.77;;;3.43;;
13927;SDS011;7036;50.834;4.718;2022-12-29T10:07:52;13.43;;;2.72;;
13927;SDS011;7036;50.834;4.718;2022-12-29T10:10:16;14.03;;;3.30;;
13927;SDS011;7036;50.834;4.718;2022-12-29T10:23:26;9.87;;;2.00;;
13927;SDS011;7036;50.834;4.718;2022-12-29T10:25:55;11.33;;;2.47;;
13927;SDS011;7036;50.834;4.718;2022-12-29T10:28:22;12.77;;;2.30;;
13927;SDS011;7036;50.834;4.718;2022-12-29T10:30:50;5.57;;;2.42;;
13927;SDS011;7036;50.834;4.718;2022-12-29T10:33:24;8.25;;;2.58;;
13927;SDS011;7036;50.834;4.718;2022-12-29T10:35:47;4.90;;;2.50;;
13927;SDS011;7036;50.834;4.718;2022-12-29T10:41:21;9.27;;;2.13;;
13927;SDS011;7036;50.834;4.718;2022-12-29T10:43:47;7.37;;;2.53;;
13927;SDS011;7036;50.834;4.718;2022-12-29T10:46:23;7.43;;;2.83;;
13927;SDS011;7036;50.834;4.718;2022-12-29T10:48:49;5.40;;;2.27;;
13927;SDS011;7036;50.834;4.718;2022-12-29T10:51:20;6.93;;;2.17;;
13927;SDS011;7036;50.834;4.718;2022-12-29T10:53:48;7.27;;;2.20;;
13927;SDS011;7036;50.834;4.718;2022-12-29T10:56:16;6.10;;;2.10;;
13927;SDS011;7036;50.834;4.718;2022-12-29T10:58:42;8.13;;;2.70;;
13927;SDS011;7036;50.834;4.718;2022-12-29T11:01:10;8.27;;;2.35;;
13927;SDS011;7036;50.834;4.718;2022-12-29T11:06:14;12.93;;;2.50;;
13927;SDS011;7036;50.834;4.718;2022-12-29T11:08:49;6.30;;;2.37;;
13927;SDS011;7036;50.834;4.718;2022-12-29T11:11:26;13.10;;;5.93;;
13927;SDS011;7036;50.834;4.718;2022-12-29T11:13:55;21.50;;;7.10;;
13927;SDS011;7036;50.834;4.718;2022-12-29T11:16:30;15.70;;;4.63;;
13927;SDS011;7036;50.834;4.718;2022-12-29T11:18:56;20.27;;;6.17;;
13927;SDS011;7036;50.834;4.718;2022-12-29T11:21:30;21.35;;;8.32;;
13927;SDS011;7036;50.834;4.718;2022-12-29T11:23:57;23.83;;;8.47;;
13927;SDS011;7036;50.834;4.718;2022-12-29T11:26:23;19.20;;;7.23;;
13927;SDS011;7036;50.834;4.718;2022-12-29T11:31:49;17.87;;;6.97;;
13927;SDS011;7036;50.834;4.718;2022-12-29T11:34:22;19.73;;;6.80;;
13927;SDS011;7036;50.834;4.718;2022-12-29T11:36:47;14.07;;;7.10;;
13927;SDS011;7036;50.834;4.718;2022-12-29T11:42:04;16.77;;;6.67;;
13927;SDS011;7036;50.834;4.718;2022-12-29T11:44:35;16.25;;;6.60;;
13927;SDS011;7036;50.834;4.718;2022-12-29T11:47:00;15.95;;;6.03;;
13927;SDS011;7036;50.834;4.718;2022-12-29T11:49:28;17.63;;;6.70;;
13927;SDS011;7036;50.834;4.718;2022-12-29T11:51:55;10.98;;;5.90;;
13927;SDS011;7036;50.834;4.718;2022-12-29T11:54:23;9.80;;;4.97;;
13927;SDS011;7036;50.834;4.718;2022-12-29T11:56:49;11.93;;;4.55;;
13927;SDS011;7036;50.834;4.718;2022-12-29T12:01:56;13.10;;;5.43;;
13927;SDS011;7036;50.834;4.718;2022-12-29T12:04:24;12.80;;;4.70;;
13927;SDS011;7036;50.834;4.718;2022-12-29T12:06:56;10.43;;;4.93;;
13927;SDS011;7036;50.834;4.718;2022-12-29T12:09:30;18.43;;;4.70;;
13927;SDS011;7036;50.834;4.718;2022-12-29T12:11:56;13.35;;;4.65;;
13927;SDS011;7036;50.834;4.718;2022-12-29T12:14:25;19.33;;;4.45;;
13927;SDS011;7036;50.834;4.718;2022-12-29T12:16:52;15.07;;;4.05;;
13927;SDS011;7036;50.834;4.718;2022-12-29T12:22:27;11.87;;;3.77;;
13927;SDS011;7036;50.834;4.718;2022-12-29T12:24:52;11.07;;;4.30;;
13927;SDS011;7036;50.834;4.718;2022-12-29T12:27:19;8.60;;;3.60;;
13927;SDS011;7036;50.834;4.718;2022-12-29T12:30:04;5.20;;;2.57;;
13927;SDS011;7036;50.834;4.718;2022-12-29T12:33:15;6.07;;;3.30;;
13927;SDS011;7036;50.834;4.718;2022-12-29T12:34:57;7.75;;;2.92;;
13927;SDS011;7036;50.834;4.718;2022-12-29T12:37:32;10.10;;;3.58;;
13927;SDS011;7036;50.834;4.718;2022-12-29T12:46:18;6.43;;;3.30;;
13927;SDS011;7036;50.834;4.718;2022-12-29T12:56:29;7.50;;;2.87;;
13927;SDS011;7036;50.834;4.718;2022-12-29T12:58:57;6.97;;;3.10;;
13927;SDS011;7036;50.834;4.718;2022-12-29T13:01:26;12.03;;;3.10;;
13927;SDS011;7036;50.834;4.718;2022-12-29T13:04:00;7.20;;;2.90;;
13927;SDS011;7036;50.834;4.718;2022-12-29T13:06:59;8.47;;;3.43;;
13927;SDS011;7036;50.834;4.718;2022-12-29T13:09:44;6.07;;;2.80;;
13927;SDS011;7036;50.834;4.718;2022-12-29T13:12:24;11.17;;;3.17;;
13927;SDS011;7036;50.834;4.718;2022-12-29T13:17:43;7.83;;;3.03;;
13927;SDS011;7036;50.834;4.718;2022-12-29T13:20:18;11.03;;;2.40;;
13927;SDS011;7036;50.834;4.718;2022-12-29T13:25:46;5.70;;;2.50;;
13927;SDS011;7036;50.834;4.718;2022-12-29T13:36:27;10.77;;;2.93;;
13927;SDS011;7036;50.834;4.718;2022-12-29T13:39:11;11.07;;;3.17;;
13927;SDS011;7036;50.834;4.718;2022-12-29T13:41:41;9.93;;;2.60;;
13927;SDS011;7036;50.834;4.718;2022-12-29T13:44:09;6.67;;;2.27;;
13927;SDS011;7036;50.834;4.718;2022-12-29T13:46:36;8.32;;;3.15;;
13927;SDS011;7036;50.834;4.718;2022-12-29T13:49:04;7.53;;;2.70;;
13927;SDS011;7036;50.834;4.718;2022-12-29T13:51:29;6.82;;;3.22;;
13927;SDS011;7036;50.834;4.718;2022-12-29T13:54:05;17.73;;;3.50;;
13927;SDS011;7036;50.834;4.718;2022-12-29T13:56:52;8.77;;;2.80;;
13927;SDS011;7036;50.834;4.718;2022-12-29T14:00:03;17.83;;;3.90;;
13927;SDS011;7036;50.834;4.718;2022-12-29T14:01:55;13.97;;;3.00;;
13927;SDS011;7036;50.834;4.718;2022-12-29T14:04:24;20.40;;;4.23;;
13927;SDS011;7036;50.834;4.718;2022-12-29T14:07:06;11.03;;;2.87;;
13927;SDS011;7036;50.834;4.718;2022-12-29T14:09:47;11.47;;;3.80;;
13927;SDS011;7036;50.834;4.718;2022-12-29T14:12:20;12.40;;;2.93;;
13927;SDS011;7036;50.834;4.718;2022-12-29T14:17:35;9.03;;;2.60;;
13927;SDS011;7036;50.834;4.718;2022-12-29T14:20:04;5.47;;;2.95;;
13927;SDS011;7036;50.834;4.718;2022-12-29T14:22:31;9.40;;;2.90;;
13927;SDS011;7036;50.834;4.718;2022-12-29T14:24:59;10.15;;;3.47;;
13927;SDS011;7036;50.834;4.718;2022-12-29T14:29:55;12.67;;;4.20;;
13927;SDS011;7036;50.834;4.718;2022-12-29T14:34:59;17.70;;;3.60;;
13927;SDS011;7036;50.834;4.718;2022-12-29T14:42:46;12.77;;;3.27;;
13927;SDS011;7036;50.834;4.718;2022-12-29T14:47:42;5.60;;;3.10;;
13927;SDS011;7036;50.834;4.718;2022-12-29T14:50:18;6.73;;;3.10;;
13927;SDS011;7036;50.834;4.718;2022-12-29T14:52:57;10.73;;;3.17;;
13927;SDS011;7036;50.834;4.718;2022-12-29T15:00:47;16.17;;;3.47;;
13927;SDS011;7036;50.834;4.718;2022-12-29T15:03:38;12.63;;;3.30;;
13927;SDS011;7036;50.834;4.718;2022-12-29T15:05:52;23.13;;;4.17;;
13927;SDS011;7036;50.834;4.718;2022-12-29T15:08:30;15.90;;;3.83;;
13927;SDS011;7036;50.834;4.718;2022-12-29T15:11:01;11.80;;;4.00;;
13927;SDS011;7036;50.834;4.718;2022-12-29T15:13:34;13.93;;;3.73;;
13927;SDS011;7036;50.834;4.718;2022-12-29T15:15:59;14.40;;;4.13;;
13927;SDS011;7036;50.834;4.718;2022-12-29T15:18:31;12.07;;;3.70;;
13927;SDS011;7036;50.834;4.718;2022-12-29T15:21:03;7.27;;;3.50;;
13927;SDS011;7036;50.834;4.718;2022-12-29T15:23:27;7.83;;;3.10;;
13927;SDS011;7036;50.834;4.718;2022-12-29T15:28:24;10.40;;;3.83;;
13927;SDS011;7036;50.834;4.718;2022-12-29T15:30:55;11.70;;;2.90;;
13927;SDS011;7036;50.834;4.718;2022-12-29T15:33:22;14.63;;;3.80;;
13927;SDS011;7036;50.834;4.718;2022-12-29T15:35:51;10.65;;;2.95;;
13927;SDS011;7036;50.834;4.718;2022-12-29T15:38:22;9.20;;;2.90;;
13927;SDS011;7036;50.834;4.718;2022-12-29T15:40:54;8.53;;;2.83;;
13927;SDS011;7036;50.834;4.718;2022-12-29T15:44:06;9.07;;;3.17;;
13927;SDS011;7036;50.834;4.718;2022-12-29T15:46:00;11.00;;;2.80;;
13927;SDS011;7036;50.834;4.718;2022-12-29T15:48:27;7.18;;;2.83;;
13927;SDS011;7036;50.834;4.718;2022-12-29T15:50:55;8.00;;;2.70;;
13927;SDS011;7036;50.834;4.718;2022-12-29T15:53:24;8.80;;;2.50;;
13927;SDS011;7036;50.834;4.718;2022-12-29T15:55:54;7.77;;;2.93;;
13927;SDS011;7036;50.834;4.718;2022-12-29T15:58:21;9.10;;;2.40;;
13927;SDS011;7036;50.834;4.718;2022-12-29T16:00:53;6.70;;;2.97;;
13927;SDS011;7036;50.834;4.718;2022-12-29T16:03:16;12.63;;;2.77;;
13927;SDS011;7036;50.834;4.718;2022-12-29T16:05:49;8.00;;;2.72;;
13927;SDS011;7036;50.834;4.718;2022-12-29T16:08:29;7.82;;;2.50;;
13927;SDS011;7036;50.834;4.718;2022-12-29T16:10:54;4.80;;;2.30;;
13927;SDS011;7036;50.834;4.718;2022-12-29T16:13:25;8.93;;;2.63;;
13927;SDS011;7036;50.834;4.718;2022-12-29T16:15:59;15.43;;;3.33;;
13927;SDS011;7036;50.834;4.718;2022-12-29T16:18:25;14.32;;;3.92;;
13927;SDS011;7036;50.834;4.718;2022-12-29T16:20:51;14.00;;;3.97;;
13927;SDS011;7036;50.834;4.718;2022-12-29T16:23:20;18.70;;;4.47;;
13927;SDS011;7036;50.834;4.718;2022-12-29T16:25:47;20.90;;;4.13;;
13927;SDS011;7036;50.834;4.718;2022-12-29T16:28:17;20.03;;;4.10;;
13927;SDS011;7036;50.834;4.718;2022-12-29T16:30:42;21.23;;;4.45;;
13927;SDS011;7036;50.834;4.718;2022-12-29T16:33:28;23.00;;;4.20;;
13927;SDS011;7036;50.834;4.718;2022-12-29T16:38:17;18.08;;;4.97;;
13927;SDS011;7036;50.834;4.718;2022-12-29T16:40:53;15.17;;;3.43;;
13927;SDS011;7036;50.834;4.718;2022-12-29T16:48:20;19.52;;;3.70;;
13927;SDS011;7036;50.834;4.718;2022-12-29T16:50:48;8.68;;;3.33;;
13927;SDS011;7036;50.834;4.718;2022-12-29T16:53:20;16.27;;;4.13;;
13927;SDS011;7036;50.834;4.718;2022-12-29T16:55:48;12.02;;;3.30;;
13927;SDS011;7036;50.834;4.718;2022-12-29T16:58:15;6.37;;;3.27;;
13927;SDS011;7036;50.834;4.718;2022-12-29T17:00:40;12.38;;;3.55;;
13927;SDS011;7036;50.834;4.718;2022-12-29T17:03:08;15.63;;;4.43;;
13927;SDS011;7036;50.834;4.718;2022-12-29T17:05:36;14.85;;;3.90;;
13927;SDS011;7036;50.834;4.718;2022-12-29T17:08:13;9.20;;;3.20;;
13927;SDS011;7036;50.834;4.718;2022-12-29T17:10:32;13.48;;;3.42;;
13927;SDS011;7036;50.834;4.718;2022-12-29T17:13:16;16.53;;;4.20;;
13927;SDS011;7036;50.834;4.718;2022-12-29T17:15:43;12.02;;;4.03;;